createdAt,value
2019-03-26T00:00:49.624Z,911.60
2019-03-26T00:01:49.723Z,911.62
2019-03-26T00:02:49.527Z,911.60
2019-03-26T00:03:49.538Z,911.63
2019-03-26T00:04:49.467Z,911.62
2019-03-26T00:05:49.434Z,911.60
2019-03-26T00:06:49.515Z,911.62
2019-03-26T00:07:49.607Z,911.62
2019-03-26T00:08:49.360Z,911.62
2019-03-26T00:09:49.314Z,911.61
2019-03-26T00:10:49.291Z,911.62
2019-03-26T00:11:49.270Z,911.64
2019-03-26T00:12:49.202Z,911.63
2019-03-26T00:13:49.341Z,911.66
2019-03-26T00:14:49.137Z,911.71
2019-03-26T00:15:49.133Z,911.70
2019-03-26T00:16:49.097Z,911.75
2019-03-26T00:17:49.320Z,911.76
2019-03-26T00:18:49.024Z,911.80
2019-03-26T00:19:48.993Z,911.82
2019-03-26T00:20:48.961Z,911.83
2019-03-26T00:21:48.933Z,911.88
2019-03-26T00:22:48.908Z,911.84
2019-03-26T00:23:48.868Z,911.82
2019-03-26T00:24:48.833Z,911.78
2019-03-26T00:25:48.777Z,911.83
2019-03-26T00:26:48.773Z,911.84
2019-03-26T00:27:48.731Z,911.84
2019-03-26T00:28:48.683Z,911.87
2019-03-26T00:29:48.711Z,911.88
2019-03-26T00:30:48.646Z,911.86
2019-03-26T00:31:48.588Z,911.87
2019-03-26T00:32:48.571Z,911.86
2019-03-26T00:33:48.607Z,911.90
2019-03-26T00:34:48.759Z,911.86
2019-03-26T00:35:48.470Z,911.85
2019-03-26T00:36:48.449Z,911.87
2019-03-26T00:37:48.408Z,911.88
2019-03-26T00:38:48.488Z,911.89
2019-03-26T00:39:48.477Z,911.93
2019-03-26T00:40:48.573Z,911.92
2019-03-26T00:41:48.304Z,911.92
2019-03-26T00:42:48.248Z,911.92
2019-03-26T00:43:48.197Z,911.91
2019-03-26T00:44:48.283Z,911.90
2019-03-26T00:45:48.174Z,911.94
2019-03-26T00:46:48.348Z,911.93
2019-03-26T00:47:48.384Z,911.89
2019-03-26T00:48:48.046Z,911.90
2019-03-26T00:49:48.097Z,911.95
2019-03-26T00:50:47.971Z,911.91
2019-03-26T00:51:47.957Z,911.88
2019-03-26T00:52:47.915Z,911.85
2019-03-26T00:53:47.885Z,911.89
2019-03-26T00:54:47.831Z,911.85
2019-03-26T00:55:47.937Z,911.86
2019-03-26T00:56:47.770Z,911.89
2019-03-26T00:57:47.735Z,911.89
2019-03-26T00:58:47.713Z,911.86
2019-03-26T00:59:47.689Z,911.89
2019-03-26T01:00:47.664Z,911.88
2019-03-26T01:01:47.619Z,911.89
2019-03-26T01:03:47.548Z,911.95
2019-03-26T01:04:47.531Z,911.94
2019-03-26T01:05:47.472Z,911.95
2019-03-26T01:06:47.440Z,912.00
2019-03-26T01:07:47.673Z,911.99
2019-03-26T01:08:47.386Z,911.96
2019-03-26T01:09:47.388Z,912.00
2019-03-26T01:10:47.352Z,911.99
2019-03-26T01:11:47.276Z,912.02
2019-03-26T01:12:47.280Z,912.02
2019-03-26T01:13:47.675Z,912.05
2019-03-26T01:14:47.228Z,912.03
2019-03-26T01:15:47.151Z,912.08
2019-03-26T01:16:47.128Z,912.05
2019-03-26T01:17:47.092Z,912.05
2019-03-26T01:18:47.042Z,912.07
2019-03-26T01:19:47.256Z,912.03
2019-03-26T01:20:47.010Z,912.06
2019-03-26T01:21:46.974Z,912.09
2019-03-26T01:22:47.118Z,912.12
2019-03-26T01:23:46.885Z,912.15
2019-03-26T01:24:46.847Z,912.13
2019-03-26T01:25:46.818Z,912.10
2019-03-26T01:26:46.802Z,912.14
2019-03-26T01:27:46.772Z,912.13
2019-03-26T01:28:46.748Z,912.13
2019-03-26T01:29:46.899Z,912.10
2019-03-26T01:30:46.657Z,912.08
2019-03-26T01:31:46.618Z,912.09
2019-03-26T01:32:46.606Z,912.08
2019-03-26T01:33:46.563Z,912.09
2019-03-26T01:34:46.587Z,912.09
2019-03-26T01:35:46.639Z,912.02
2019-03-26T01:36:46.476Z,912.04
2019-03-26T01:37:46.443Z,911.99
2019-03-26T01:38:46.425Z,912.00
2019-03-26T01:39:46.385Z,912.00
2019-03-26T01:40:46.333Z,911.99
2019-03-26T01:41:46.490Z,912.01
2019-03-26T01:42:46.281Z,912.03
2019-03-26T01:43:46.226Z,912.04
2019-03-26T01:44:46.192Z,912.08
2019-03-26T01:45:46.176Z,912.06
2019-03-26T01:46:46.445Z,912.09
2019-03-26T01:47:46.141Z,912.06
2019-03-26T01:48:46.063Z,912.06
2019-03-26T01:49:46.046Z,912.02
2019-03-26T01:50:46.008Z,912.02
2019-03-26T01:51:46.286Z,912.02
2019-03-26T01:52:45.935Z,912.03
2019-03-26T01:53:45.907Z,912.04
2019-03-26T01:54:45.864Z,912.07
2019-03-26T01:55:45.849Z,912.07
2019-03-26T01:56:45.799Z,912.08
2019-03-26T01:57:45.761Z,912.07
2019-03-26T01:58:45.750Z,912.05
2019-03-26T01:59:45.739Z,912.07
2019-03-26T02:00:45.701Z,912.06
2019-03-26T02:01:45.658Z,912.04
2019-03-26T02:02:45.863Z,912.07
2019-03-26T02:03:45.592Z,912.10
2019-03-26T02:04:58.929Z,912.12
2019-03-26T02:05:45.520Z,912.20
2019-03-26T02:06:45.470Z,912.31
2019-03-26T02:07:45.458Z,912.06
2019-03-26T02:08:45.462Z,912.01
2019-03-26T02:09:45.393Z,912.08
2019-03-26T02:10:45.347Z,912.06
2019-03-26T02:11:45.306Z,912.10
2019-03-26T02:12:48.347Z,912.08
2019-03-26T02:13:45.266Z,912.03
2019-03-26T02:14:45.403Z,911.99
2019-03-26T02:15:45.212Z,911.99
2019-03-26T02:16:45.183Z,911.96
2019-03-26T02:17:45.129Z,912.00
2019-03-26T02:18:45.108Z,911.98
2019-03-26T02:19:45.051Z,911.96
2019-03-26T02:20:45.009Z,911.93
2019-03-26T02:21:45.057Z,911.96
2019-03-26T02:22:44.950Z,911.92
2019-03-26T02:23:44.913Z,911.95
2019-03-26T02:24:44.976Z,911.93
2019-03-26T02:25:44.862Z,911.91
2019-03-26T02:26:44.959Z,911.94
2019-03-26T02:27:44.780Z,911.93
2019-03-26T02:28:44.771Z,911.94
2019-03-26T02:29:44.971Z,911.96
2019-03-26T02:30:44.704Z,911.92
2019-03-26T02:31:44.686Z,911.95
2019-03-26T02:32:44.630Z,911.97
2019-03-26T02:33:44.589Z,912.00
2019-03-26T02:34:44.551Z,912.00
2019-03-26T02:35:44.650Z,911.99
2019-03-26T02:36:44.502Z,911.98
2019-03-26T02:37:44.485Z,911.99
2019-03-26T02:38:44.430Z,911.96
2019-03-26T02:39:44.390Z,911.93
2019-03-26T02:40:44.388Z,911.91
2019-03-26T02:41:44.570Z,911.92
2019-03-26T02:42:45.514Z,911.88
2019-03-26T02:43:44.273Z,911.91
2019-03-26T02:44:44.242Z,911.88
2019-03-26T02:45:44.187Z,911.87
2019-03-26T02:46:44.159Z,911.87
2019-03-26T02:47:44.395Z,911.88
2019-03-26T02:48:44.109Z,911.87
2019-03-26T02:49:44.079Z,911.87
2019-03-26T02:50:44.022Z,911.83
2019-03-26T02:51:44.020Z,911.78
2019-03-26T02:52:43.997Z,911.79
2019-03-26T02:53:43.924Z,911.76
2019-03-26T02:54:43.900Z,911.78
2019-03-26T02:55:43.883Z,911.77
2019-03-26T02:56:43.865Z,911.79
2019-03-26T02:57:43.818Z,911.77
2019-03-26T02:58:43.764Z,911.79
2019-03-26T02:59:43.725Z,911.78
2019-03-26T03:00:43.694Z,911.77
2019-03-26T03:01:43.678Z,911.77
2019-03-26T03:02:43.646Z,911.74
2019-03-26T03:03:43.607Z,911.72
2019-03-26T03:04:43.575Z,911.71
2019-03-26T03:05:43.547Z,911.67
2019-03-26T03:06:43.520Z,911.63
2019-03-26T03:07:43.482Z,911.64
2019-03-26T03:08:43.655Z,911.58
2019-03-26T03:09:43.405Z,911.59
2019-03-26T03:10:43.362Z,911.56
2019-03-26T03:11:43.353Z,911.55
2019-03-26T03:12:43.297Z,911.46
2019-03-26T03:13:43.282Z,911.51
2019-03-26T03:14:43.540Z,911.48
2019-03-26T03:15:43.226Z,911.41
2019-03-26T03:16:43.187Z,911.42
2019-03-26T03:17:43.140Z,911.41
2019-03-26T03:18:43.097Z,911.38
2019-03-26T03:19:43.276Z,911.38
2019-03-26T03:20:43.076Z,911.39
2019-03-26T03:21:43.020Z,911.35
2019-03-26T03:22:42.996Z,911.35
2019-03-26T03:23:42.957Z,911.34
2019-03-26T03:24:42.902Z,911.33
2019-03-26T03:25:42.874Z,911.33
2019-03-26T03:26:42.856Z,911.32
2019-03-26T03:27:42.804Z,911.30
2019-03-26T03:28:42.772Z,911.31
2019-03-26T03:29:42.793Z,911.32
2019-03-26T03:30:42.738Z,911.33
2019-03-26T03:31:42.679Z,911.32
2019-03-26T03:32:42.641Z,911.35
2019-03-26T03:33:42.623Z,911.33
2019-03-26T03:34:42.595Z,911.36
2019-03-26T03:35:52.153Z,911.37
2019-03-26T03:36:42.503Z,911.35
2019-03-26T03:37:42.481Z,911.34
2019-03-26T03:38:42.461Z,911.32
2019-03-26T03:39:42.415Z,911.32
2019-03-26T03:40:42.391Z,911.35
2019-03-26T03:41:42.342Z,911.30
2019-03-26T03:42:42.393Z,911.29
2019-03-26T03:43:42.292Z,911.29
2019-03-26T03:44:42.268Z,911.28
2019-03-26T03:45:42.212Z,911.29
2019-03-26T03:46:42.184Z,911.29
2019-03-26T03:47:42.140Z,911.29
2019-03-26T03:48:42.127Z,911.29
2019-03-26T03:49:42.091Z,911.27
2019-03-26T03:50:42.047Z,911.28
2019-03-26T03:51:42.026Z,911.27
2019-03-26T03:52:41.996Z,911.25
2019-03-26T03:53:41.974Z,911.26
2019-03-26T03:54:41.913Z,911.26
2019-03-26T03:55:41.878Z,911.24
2019-03-26T03:56:41.845Z,911.21
2019-03-26T03:57:41.834Z,911.22
2019-03-26T03:58:41.799Z,911.21
2019-03-26T03:59:41.771Z,911.17
2019-03-26T04:00:41.726Z,911.14
2019-03-26T04:01:41.686Z,911.15
2019-03-26T04:02:41.751Z,911.12
2019-03-26T04:03:41.633Z,911.12
2019-03-26T04:04:41.603Z,911.10
2019-03-26T04:05:41.593Z,911.09
2019-03-26T04:06:41.705Z,911.14
2019-03-26T04:07:41.494Z,911.11
2019-03-26T04:08:41.463Z,911.07
2019-03-26T04:09:41.437Z,911.13
2019-03-26T04:10:41.381Z,911.11
2019-03-26T04:11:41.367Z,911.12
2019-03-26T04:12:41.335Z,911.13
2019-03-26T04:13:41.303Z,911.15
2019-03-26T04:14:41.255Z,911.13
2019-03-26T04:15:41.237Z,911.12
2019-03-26T04:16:41.192Z,911.13
2019-03-26T04:17:41.170Z,911.10
2019-03-26T04:18:41.136Z,911.13
2019-03-26T04:19:41.106Z,911.11
2019-03-26T04:20:41.075Z,911.07
2019-03-26T04:21:41.020Z,911.11
2019-03-26T04:22:40.989Z,911.11
2019-03-26T04:23:40.975Z,911.13
2019-03-26T04:24:40.931Z,911.16
2019-03-26T04:25:40.899Z,911.11
2019-03-26T04:26:40.909Z,911.14
2019-03-26T04:27:40.824Z,911.15
2019-03-26T04:28:40.792Z,911.14
2019-03-26T04:29:40.785Z,911.17
2019-03-26T04:30:40.754Z,911.12
2019-03-26T04:31:40.689Z,911.13
2019-03-26T04:32:40.673Z,911.13
2019-03-26T04:33:40.645Z,911.13
2019-03-26T04:34:40.589Z,911.15
2019-03-26T04:35:40.579Z,911.12
2019-03-26T04:36:40.543Z,911.10
2019-03-26T04:37:40.489Z,911.10
2019-03-26T04:38:40.478Z,911.09
2019-03-26T04:39:40.446Z,911.07
2019-03-26T04:40:40.406Z,911.03
2019-03-26T04:41:40.386Z,911.02
2019-03-26T04:42:40.392Z,911.03
2019-03-26T04:43:40.324Z,911.00
2019-03-26T04:44:40.258Z,910.99
2019-03-26T04:45:40.251Z,910.95
2019-03-26T04:46:40.196Z,910.99
2019-03-26T04:47:40.160Z,910.95
2019-03-26T04:48:40.124Z,910.93
2019-03-26T04:49:40.090Z,910.90
2019-03-26T04:50:40.081Z,910.89
2019-03-26T04:51:40.027Z,910.90
2019-03-26T04:52:40.002Z,910.87
2019-03-26T04:53:39.970Z,910.87
2019-03-26T04:54:40.013Z,910.83
2019-03-26T04:55:39.893Z,910.83
2019-03-26T04:56:39.886Z,910.82
2019-03-26T04:57:39.826Z,910.84
2019-03-26T04:58:39.823Z,910.80
2019-03-26T04:59:39.812Z,910.80
2019-03-26T05:00:39.728Z,910.80
2019-03-26T05:01:39.694Z,910.78
2019-03-26T05:02:39.681Z,910.76
2019-03-26T05:03:39.640Z,910.75
2019-03-26T05:04:39.602Z,910.72
2019-03-26T05:05:39.565Z,910.74
2019-03-26T05:06:39.529Z,910.71
2019-03-26T05:07:39.495Z,910.70
2019-03-26T05:08:39.721Z,910.67
2019-03-26T05:09:39.430Z,910.66
2019-03-26T05:10:39.432Z,910.67
2019-03-26T05:11:39.391Z,910.67
2019-03-26T05:12:39.354Z,910.71
2019-03-26T05:13:39.304Z,910.67
2019-03-26T05:14:39.412Z,910.63
2019-03-26T05:15:39.241Z,910.68
2019-03-26T05:16:39.218Z,910.68
2019-03-26T05:17:39.195Z,910.65
2019-03-26T05:18:39.149Z,910.64
2019-03-26T05:19:39.101Z,910.67
2019-03-26T05:20:39.110Z,910.68
2019-03-26T05:21:39.049Z,910.68
2019-03-26T05:22:39.030Z,910.65
2019-03-26T05:23:38.971Z,910.66
2019-03-26T05:24:38.962Z,910.62
2019-03-26T05:25:38.970Z,910.65
2019-03-26T05:26:38.874Z,910.66
2019-03-26T05:27:45.221Z,910.67
2019-03-26T05:28:38.833Z,910.69
2019-03-26T05:29:38.800Z,910.70
2019-03-26T05:30:38.732Z,910.71
2019-03-26T05:31:38.723Z,910.77
2019-03-26T05:32:38.670Z,910.79
2019-03-26T05:33:38.652Z,910.80
2019-03-26T05:34:38.613Z,910.82
2019-03-26T05:35:38.603Z,910.87
2019-03-26T05:36:50.419Z,910.84
2019-03-26T05:37:38.503Z,910.84
2019-03-26T05:38:38.488Z,910.84
2019-03-26T05:39:38.459Z,910.81
2019-03-26T05:40:38.404Z,910.85
2019-03-26T05:41:38.392Z,910.84
2019-03-26T05:42:38.360Z,910.85
2019-03-26T05:43:38.325Z,910.88
2019-03-26T05:44:38.271Z,910.85
2019-03-26T05:45:38.263Z,910.85
2019-03-26T05:46:38.202Z,910.85
2019-03-26T05:47:38.193Z,910.84
2019-03-26T05:48:38.136Z,910.86
2019-03-26T05:49:38.105Z,910.83
2019-03-26T05:50:38.069Z,910.86
2019-03-26T05:51:38.045Z,910.81
2019-03-26T05:52:38.025Z,910.81
2019-03-26T05:53:38.035Z,910.82
2019-03-26T05:54:37.959Z,910.82
2019-03-26T05:55:37.910Z,910.83
2019-03-26T05:56:37.878Z,910.80
2019-03-26T05:57:37.843Z,910.82
2019-03-26T05:58:37.901Z,910.76
2019-03-26T05:59:37.776Z,910.79
2019-03-26T06:00:37.761Z,910.78
2019-03-26T06:01:37.757Z,910.74
2019-03-26T06:02:37.671Z,910.76
2019-03-26T06:03:37.658Z,910.72
2019-03-26T06:04:37.605Z,910.71
2019-03-26T06:05:37.571Z,910.74
2019-03-26T06:06:37.642Z,910.71
2019-03-26T06:07:37.535Z,910.72
2019-03-26T06:08:37.474Z,910.69
2019-03-26T06:09:37.442Z,910.68
2019-03-26T06:10:37.425Z,910.74
2019-03-26T06:11:37.392Z,910.72
2019-03-26T06:12:37.590Z,910.71
2019-03-26T06:13:37.348Z,910.71
2019-03-26T06:14:37.293Z,910.66
2019-03-26T06:15:37.259Z,910.67
2019-03-26T06:16:38.650Z,910.66
2019-03-26T06:17:37.174Z,910.66
2019-03-26T06:18:37.145Z,910.63
2019-03-26T06:19:37.105Z,910.64
2019-03-26T06:20:37.084Z,910.65
2019-03-26T06:21:37.048Z,910.65
2019-03-26T06:22:37.009Z,910.68
2019-03-26T06:23:36.997Z,910.69
2019-03-26T06:24:36.950Z,910.67
2019-03-26T06:25:36.931Z,910.65
2019-03-26T06:26:36.901Z,910.65
2019-03-26T06:27:36.867Z,910.63
2019-03-26T06:28:36.826Z,910.62
2019-03-26T06:29:36.775Z,910.63
2019-03-26T06:30:36.768Z,910.63
2019-03-26T06:31:36.707Z,910.66
2019-03-26T06:32:36.700Z,910.64
2019-03-26T06:33:36.792Z,910.66
2019-03-26T06:34:36.613Z,910.67
2019-03-26T06:35:36.593Z,910.66
2019-03-26T06:36:36.585Z,910.66
2019-03-26T06:37:36.533Z,910.68
2019-03-26T06:38:36.493Z,910.68
2019-03-26T06:39:36.450Z,910.72
2019-03-26T06:40:36.427Z,910.67
2019-03-26T06:41:36.424Z,910.73
2019-03-26T06:42:36.350Z,910.69
2019-03-26T06:43:36.327Z,910.68
2019-03-26T06:44:36.287Z,910.68
2019-03-26T06:45:36.241Z,910.64
2019-03-26T06:46:36.210Z,910.62
2019-03-26T06:47:36.177Z,910.62
2019-03-26T06:48:36.143Z,910.59
2019-03-26T06:49:36.111Z,910.59
2019-03-26T06:50:36.097Z,910.62
2019-03-26T06:51:36.041Z,910.61
2019-03-26T06:52:36.031Z,910.60
2019-03-26T06:53:35.978Z,910.59
2019-03-26T06:54:35.959Z,910.62
2019-03-26T06:55:35.928Z,910.62
2019-03-26T06:56:35.896Z,910.58
2019-03-26T06:57:36.144Z,910.57
2019-03-26T06:58:35.821Z,910.55
2019-03-26T06:59:35.797Z,910.54
2019-03-26T07:00:35.765Z,910.55
2019-03-26T07:01:35.727Z,910.51
2019-03-26T07:02:35.682Z,910.51
2019-03-26T07:03:35.662Z,910.50
2019-03-26T07:04:35.629Z,910.47
2019-03-26T07:05:35.823Z,910.44
2019-03-26T07:06:35.542Z,910.43
2019-03-26T07:07:35.507Z,910.42
2019-03-26T07:08:35.494Z,910.41
2019-03-26T07:09:35.464Z,910.39
2019-03-26T07:10:35.429Z,910.40
2019-03-26T07:11:35.490Z,910.37
2019-03-26T07:12:35.341Z,910.37
2019-03-26T07:13:35.328Z,910.32
2019-03-26T07:14:35.290Z,910.33
2019-03-26T07:15:35.258Z,910.33
2019-03-26T07:16:35.230Z,910.35
2019-03-26T07:17:35.179Z,910.36
2019-03-26T07:18:35.142Z,910.35
2019-03-26T07:19:35.123Z,910.32
2019-03-26T07:20:35.098Z,910.33
2019-03-26T07:21:35.060Z,910.31
2019-03-26T07:22:35.008Z,910.31
2019-03-26T07:23:34.994Z,910.34
2019-03-26T07:24:34.959Z,910.29
2019-03-26T07:25:34.926Z,910.30
2019-03-26T07:26:34.871Z,910.28
2019-03-26T07:27:34.838Z,910.31
2019-03-26T07:28:34.906Z,910.27
2019-03-26T07:29:34.771Z,910.28
2019-03-26T07:30:34.759Z,910.28
2019-03-26T07:31:34.749Z,910.32
2019-03-26T07:32:34.692Z,910.33
2019-03-26T07:33:34.659Z,910.33
2019-03-26T07:34:34.634Z,910.34
2019-03-26T07:35:34.572Z,910.34
2019-03-26T07:36:34.539Z,910.36
2019-03-26T07:37:44.456Z,910.32
2019-03-26T07:38:34.502Z,910.32
2019-03-26T07:39:34.467Z,910.34
2019-03-26T07:40:34.415Z,910.33
2019-03-26T07:41:34.389Z,910.34
2019-03-26T07:42:34.336Z,910.32
2019-03-26T07:43:34.303Z,910.34
2019-03-26T07:44:34.272Z,910.37
2019-03-26T07:45:34.260Z,910.39
2019-03-26T07:46:34.222Z,910.41
2019-03-26T07:47:34.172Z,910.42
2019-03-26T07:48:34.163Z,910.44
2019-03-26T07:49:34.103Z,910.41
2019-03-26T07:50:34.099Z,910.41
2019-03-26T07:51:34.038Z,910.47
2019-03-26T07:52:34.001Z,910.48
2019-03-26T07:53:33.973Z,910.45
2019-03-26T07:54:33.956Z,910.50
2019-03-26T07:55:33.922Z,910.50
2019-03-26T07:56:33.887Z,910.51
2019-03-26T07:57:33.863Z,910.55
2019-03-26T07:58:33.824Z,910.57
2019-03-26T07:59:33.785Z,910.58
2019-03-26T08:00:33.754Z,910.59
2019-03-26T08:01:33.724Z,910.59
2019-03-26T08:02:33.689Z,910.62
2019-03-26T08:03:33.655Z,910.63
2019-03-26T08:04:33.621Z,910.63
2019-03-26T08:05:33.585Z,910.66
2019-03-26T08:06:33.556Z,910.64
2019-03-26T08:07:33.505Z,910.67
2019-03-26T08:08:33.472Z,910.68
2019-03-26T08:09:33.551Z,910.70
2019-03-26T08:10:33.423Z,910.71
2019-03-26T08:11:33.389Z,910.72
2019-03-26T08:12:33.361Z,910.76
2019-03-26T08:13:33.308Z,910.78
2019-03-26T08:14:33.291Z,910.82
2019-03-26T08:15:33.235Z,910.79
2019-03-26T08:16:33.265Z,910.81
2019-03-26T08:17:33.192Z,910.82
2019-03-26T08:18:33.155Z,910.88
2019-03-26T08:19:33.126Z,910.83
2019-03-26T08:20:33.085Z,910.90
2019-03-26T08:21:33.112Z,910.87
2019-03-26T08:22:33.019Z,910.88
2019-03-26T08:23:32.986Z,910.89
2019-03-26T08:24:32.943Z,910.92
2019-03-26T08:25:33.997Z,910.93
2019-03-26T08:26:32.889Z,910.90
2019-03-26T08:27:32.834Z,910.93
2019-03-26T08:28:32.802Z,910.97
2019-03-26T08:29:32.850Z,910.94
2019-03-26T08:30:32.758Z,910.94
2019-03-26T08:31:32.720Z,910.96
2019-03-26T08:32:32.690Z,910.97
2019-03-26T08:33:32.629Z,910.97
2019-03-26T08:34:32.766Z,911.00
2019-03-26T08:35:32.568Z,910.99
2019-03-26T08:36:32.550Z,911.04
2019-03-26T08:37:32.517Z,911.05
2019-03-26T08:38:33.642Z,911.02
2019-03-26T08:39:32.430Z,910.96
2019-03-26T08:40:32.406Z,911.06
2019-03-26T08:41:32.360Z,911.06
2019-03-26T08:42:32.346Z,911.07
2019-03-26T08:43:32.299Z,911.06
2019-03-26T08:44:32.283Z,911.05
2019-03-26T08:45:32.227Z,911.06
2019-03-26T08:46:32.218Z,911.08
2019-03-26T08:47:32.169Z,911.07
2019-03-26T08:48:32.134Z,911.09
2019-03-26T08:49:32.136Z,911.10
2019-03-26T08:50:32.089Z,911.11
2019-03-26T08:51:32.047Z,911.16
2019-03-26T08:52:32.013Z,911.23
2019-03-26T08:53:31.976Z,911.28
2019-03-26T08:54:31.944Z,911.25
2019-03-26T08:55:31.918Z,911.25
2019-03-26T08:56:31.890Z,911.23
2019-03-26T08:57:31.827Z,911.28
2019-03-26T08:58:31.824Z,911.33
2019-03-26T08:59:31.786Z,911.37
2019-03-26T09:00:32.182Z,911.33
2019-03-26T09:01:31.864Z,911.34
2019-03-26T09:02:31.680Z,911.34
2019-03-26T09:03:31.651Z,911.36
2019-03-26T09:04:31.618Z,911.39
2019-03-26T09:05:31.567Z,911.39
2019-03-26T09:06:31.543Z,911.36
2019-03-26T09:07:31.492Z,911.39
2019-03-26T09:08:31.483Z,911.38
2019-03-26T09:09:31.438Z,911.37
2019-03-26T09:10:31.413Z,911.35
2019-03-26T09:11:31.418Z,911.32
2019-03-26T09:12:31.346Z,911.28
2019-03-26T09:13:31.338Z,911.32
2019-03-26T09:14:31.254Z,911.30
2019-03-26T09:15:31.248Z,911.30
2019-03-26T09:16:31.194Z,911.28
2019-03-26T09:17:31.160Z,911.31
2019-03-26T09:19:31.100Z,911.32
2019-03-26T09:20:31.061Z,911.36
2019-03-26T09:21:32.620Z,911.35
2019-03-26T09:22:31.008Z,911.36
2019-03-26T09:23:30.983Z,911.39
2019-03-26T09:24:30.942Z,911.43
2019-03-26T09:25:30.888Z,911.43
2019-03-26T09:26:30.856Z,911.45
2019-03-26T09:27:30.850Z,911.47
2019-03-26T09:28:30.811Z,911.48
2019-03-26T09:29:30.799Z,911.48
2019-03-26T09:30:30.740Z,911.51
2019-03-26T09:31:30.686Z,911.56
2019-03-26T09:32:30.669Z,911.56
2019-03-26T09:33:30.789Z,911.59
2019-03-26T09:34:30.586Z,911.59
2019-03-26T09:35:30.561Z,911.62
2019-03-26T09:36:30.538Z,911.58
2019-03-26T09:37:30.508Z,911.63
2019-03-26T09:38:38.899Z,911.63
2019-03-26T09:39:30.580Z,911.69
2019-03-26T09:40:30.403Z,911.71
2019-03-26T09:41:30.358Z,911.72
2019-03-26T09:42:30.337Z,911.73
2019-03-26T09:43:30.286Z,911.76
2019-03-26T09:44:30.254Z,911.77
2019-03-26T09:45:30.264Z,911.76
2019-03-26T09:46:30.212Z,911.77
2019-03-26T09:47:30.403Z,911.75
2019-03-26T09:48:30.164Z,911.78
2019-03-26T09:49:30.084Z,911.77
2019-03-26T09:50:30.069Z,911.81
2019-03-26T09:51:30.031Z,911.84
2019-03-26T09:52:30.002Z,911.84
2019-03-26T09:53:29.962Z,911.82
2019-03-26T09:54:30.027Z,911.81
2019-03-26T09:55:29.884Z,911.83
2019-03-26T09:56:32.139Z,911.85
2019-03-26T09:57:29.814Z,911.83
2019-03-26T09:58:29.794Z,911.86
2019-03-26T09:59:29.827Z,911.90
2019-03-26T10:00:29.992Z,911.88
2019-03-26T10:01:29.891Z,911.92
2019-03-26T10:02:29.649Z,911.92
2019-03-26T10:03:29.620Z,911.90
2019-03-26T10:04:29.582Z,911.92
2019-03-26T10:05:29.593Z,911.97
2019-03-26T10:06:29.684Z,911.95
2019-03-26T10:07:29.503Z,912.00
2019-03-26T10:08:29.450Z,911.98
2019-03-26T10:09:29.415Z,912.06
2019-03-26T10:10:29.389Z,912.07
2019-03-26T10:11:29.353Z,912.07
2019-03-26T10:12:29.359Z,912.06
2019-03-26T10:13:29.283Z,912.09
2019-03-26T10:14:29.283Z,912.10
2019-03-26T10:15:29.243Z,912.16
2019-03-26T10:16:29.710Z,912.14
2019-03-26T10:17:29.153Z,912.14
2019-03-26T10:18:29.127Z,912.20
2019-03-26T10:19:29.100Z,912.22
2019-03-26T10:20:29.057Z,912.26
2019-03-26T10:21:29.030Z,912.30
2019-03-26T10:22:29.027Z,912.31
2019-03-26T10:23:28.968Z,912.37
2019-03-26T10:24:28.966Z,912.36
2019-03-26T10:25:28.886Z,912.34
2019-03-26T10:26:28.869Z,912.36
2019-03-26T10:27:28.832Z,912.43
2019-03-26T10:28:28.784Z,912.46
2019-03-26T10:29:30.455Z,912.49
2019-03-26T10:30:28.735Z,912.49
2019-03-26T10:31:28.684Z,912.48
2019-03-26T10:32:28.917Z,912.50
2019-03-26T10:33:28.657Z,912.54
2019-03-26T10:34:28.601Z,912.51
2019-03-26T10:35:28.608Z,912.55
2019-03-26T10:36:28.521Z,912.57
2019-03-26T10:37:28.503Z,912.57
2019-03-26T10:38:28.451Z,912.56
2019-03-26T10:39:28.421Z,912.60
2019-03-26T10:40:28.403Z,912.60
2019-03-26T10:41:28.374Z,912.62
2019-03-26T10:42:28.348Z,912.63
2019-03-26T10:43:28.311Z,912.67
2019-03-26T10:44:28.350Z,912.68
2019-03-26T10:45:28.236Z,912.67
2019-03-26T10:46:28.181Z,912.70
2019-03-26T10:47:28.154Z,912.73
2019-03-26T10:48:28.146Z,912.77
2019-03-26T10:49:28.094Z,912.77
2019-03-26T10:50:28.060Z,912.77
2019-03-26T10:51:28.037Z,912.80
2019-03-26T10:52:30.771Z,912.83
2019-03-26T10:53:27.971Z,912.86
2019-03-26T10:54:27.941Z,912.86
2019-03-26T10:55:27.889Z,912.87
2019-03-26T10:56:27.870Z,912.88
2019-03-26T10:57:27.824Z,912.89
2019-03-26T10:58:27.807Z,912.93
2019-03-26T10:59:27.905Z,912.94
2019-03-26T11:00:27.769Z,912.96
2019-03-26T11:01:27.740Z,912.99
2019-03-26T11:02:27.655Z,913.03
2019-03-26T11:03:27.640Z,913.02
2019-03-26T11:04:27.626Z,913.07
2019-03-26T11:05:27.710Z,913.06
2019-03-26T11:06:27.548Z,913.13
2019-03-26T11:07:27.497Z,913.15
2019-03-26T11:08:27.567Z,913.21
2019-03-26T11:09:27.497Z,913.23
2019-03-26T11:10:27.412Z,913.19
2019-03-26T11:11:27.386Z,913.20
2019-03-26T11:12:27.335Z,913.31
2019-03-26T11:13:27.313Z,913.23
2019-03-26T11:14:27.260Z,913.13
2019-03-26T11:15:27.226Z,913.11
2019-03-26T11:16:27.245Z,913.18
2019-03-26T11:17:27.168Z,913.19
2019-03-26T11:18:27.147Z,913.19
2019-03-26T11:19:27.095Z,913.24
2019-03-26T11:20:27.069Z,913.22
2019-03-26T11:21:27.054Z,913.29
2019-03-26T11:22:57.695Z,913.31
2019-03-26T11:23:57.678Z,913.28
2019-03-26T11:24:57.641Z,913.31
2019-03-26T11:25:57.615Z,913.34
2019-03-26T11:26:57.581Z,913.31
2019-03-26T11:27:57.542Z,913.33
2019-03-26T11:28:57.496Z,913.35
2019-03-26T11:29:57.457Z,913.34
2019-03-26T11:30:57.425Z,913.34
2019-03-26T11:32:57.375Z,913.35
2019-03-26T11:33:57.349Z,913.37
2019-03-26T11:34:57.322Z,913.39
2019-03-26T11:35:57.318Z,913.40
2019-03-26T11:36:57.483Z,913.45
2019-03-26T11:37:57.218Z,913.53
2019-03-26T11:38:57.166Z,913.51
2019-03-26T11:39:57.160Z,913.52
2019-03-26T11:40:57.109Z,913.55
2019-03-26T11:41:57.090Z,913.54
2019-03-26T11:42:57.305Z,913.61
2019-03-26T11:43:57.022Z,913.63
2019-03-26T11:44:59.290Z,913.79
2019-03-26T11:45:56.949Z,914.72
2019-03-26T11:46:56.962Z,914.33
2019-03-26T11:47:56.891Z,913.58
2019-03-26T11:48:56.856Z,913.61
2019-03-26T11:49:56.835Z,913.54
2019-03-26T11:50:56.776Z,913.58
2019-03-26T11:51:56.767Z,913.58
2019-03-26T11:52:56.757Z,913.54
2019-03-26T11:53:56.718Z,913.59
2019-03-26T11:54:56.651Z,913.67
2019-03-26T11:55:56.639Z,913.58
2019-03-26T11:56:56.609Z,913.54
2019-03-26T11:57:56.546Z,913.55
2019-03-26T11:58:56.565Z,913.50
2019-03-26T11:59:56.504Z,913.54
2019-03-26T12:00:56.474Z,913.56
2019-03-26T12:01:56.426Z,913.62
2019-03-26T12:02:56.412Z,913.78
2019-03-26T12:03:56.371Z,913.56
2019-03-26T12:04:56.320Z,913.52
2019-03-26T12:05:56.297Z,913.75
2019-03-26T12:06:56.298Z,914.11
2019-03-26T12:07:56.222Z,914.15
2019-03-26T12:08:56.349Z,913.80
2019-03-26T12:09:56.191Z,916.52
2019-03-26T12:10:56.128Z,919.77
2019-03-26T12:11:56.102Z,915.49
2019-03-26T12:12:56.084Z,915.39
2019-03-26T12:13:56.081Z,916.18
2019-03-26T12:14:56.033Z,919.17
2019-03-26T12:15:55.985Z,918.48
2019-03-26T12:16:55.936Z,919.38
2019-03-26T12:17:55.905Z,926.11
2019-03-26T12:18:55.869Z,916.03
2019-03-26T12:19:55.868Z,914.45
2019-03-26T12:20:55.858Z,914.15
2019-03-26T12:21:55.779Z,917.06
2019-03-26T12:22:55.763Z,915.70
2019-03-26T12:23:55.731Z,915.60
2019-03-26T12:24:55.684Z,916.75
2019-03-26T12:25:55.664Z,916.90
2019-03-26T12:26:55.625Z,914.01
2019-03-26T12:27:55.609Z,914.05
2019-03-26T12:28:55.559Z,914.44
2019-03-26T12:29:55.525Z,919.22
2019-03-26T12:30:55.504Z,917.04
2019-03-26T12:31:55.467Z,914.45